GGNFJ EGNH-

Flight info

Callsign GGNFJ
Flight time N/A
Altitude
Route
Aircraft C25C

Departure

Time 2026-04-22 18:06
Airport Blackpool Airport (EGNH)

Arrival

Time N/A
Airport -
Time Latitude Longitude Altitude Speed Heading
2026-04-22 17:52 53.77739 -3.04325 33 ft 0 kts 266°
2026-04-22 17:58 53.77739 -3.04330 33 ft 4 kts 266°
2026-04-22 17:58 53.77714 -3.04352 33 ft 6 kts 173°
2026-04-22 17:59 53.77681 -3.04322 33 ft 5 kts 96°
2026-04-22 17:59 53.77683 -3.04259 33 ft 5 kts 97°
2026-04-22 17:59 53.77666 -3.04199 33 ft 6 kts 123°
2026-04-22 17:59 53.77626 -3.04183 33 ft 7 kts 201°
2026-04-22 18:00 53.77596 -3.04213 33 ft 8 kts 212°
2026-04-22 18:00 53.77518 -3.04294 33 ft 11 kts 210°
2026-04-22 18:00 53.77447 -3.04366 33 ft 13 kts 208°
2026-04-22 18:00 53.77357 -3.04394 33 ft 14 kts 176°
2026-04-22 18:01 53.77324 -3.04386 33 ft 0 kts 166°
2026-04-22 18:04 53.77294 -3.04373 33 ft 11 kts 162°
2026-04-22 18:05 53.77226 -3.04286 31 ft 14 kts 108°
2026-04-22 18:05 53.77222 -3.04243 30 ft 0 kts 95°
2026-04-22 18:05 53.77220 -3.04201 30 ft 28 kts 94°
2026-04-22 18:06 53.77129 -3.02625 244 ft 154 kts 99°
2026-04-22 18:06 53.76972 -3.00589 667 ft 193 kts 99°
2026-04-22 18:06 53.76763 -2.98220 1018 ft 202 kts 98°
2026-04-22 18:06 53.76794 -2.95891 1096 ft 202 kts 76°
2026-04-22 18:07 53.77593 -2.93876 992 ft 218 kts 41°
2026-04-22 18:07 53.79049 -2.93040 988 ft 230 kts
2026-04-22 18:07 53.80613 -2.93749 1005 ft 241 kts 332°
2026-04-22 18:07 53.81702 -2.95935 903 ft 251 kts 293°
2026-04-22 18:08 53.81953 -2.98759 1063 ft 244 kts 270°
2026-04-22 18:08 53.81979 -3.01659 1009 ft 249 kts 270°
2026-04-22 18:08 53.81991 -3.04581 1146 ft 247 kts 269°
2026-04-22 18:08 53.82002 -3.07522 1081 ft 253 kts 270°
2026-04-22 18:09 53.82015 -3.10458 1014 ft 251 kts 270°
2026-04-22 18:09 53.81717 -3.13280 1097 ft 240 kts 240°
2026-04-22 18:09 53.80593 -3.15154 1070 ft 216 kts 198°
2026-04-22 18:09 53.79224 -3.15396 961 ft 190 kts 159°
2026-04-22 18:10 53.78266 -3.14217 1001 ft 163 kts 116°
2026-04-22 18:10 53.77878 -3.12463 840 ft 159 kts 107°
2026-04-22 18:10 53.77556 -3.10687 613 ft 156 kts 105°
2026-04-22 18:10 53.77451 -3.09012 509 ft 134 kts 90°
2026-04-22 18:11 53.77410 -3.07601 392 ft 111 kts 101°
2026-04-22 18:11 53.77322 -3.06321 289 ft 109 kts 96°
2026-04-22 18:11 53.77268 -3.05079 195 ft 105 kts 100°
2026-04-22 18:11 53.77207 -3.03865 38 ft 95 kts 96°
2026-04-22 18:12 53.77153 -3.02767 39 ft 122 kts 94°
2026-04-22 18:12 53.77062 -3.01088 640 ft 158 kts 98°
2026-04-22 18:12 53.76975 -2.99821 755 ft 166 kts 99°
2026-04-22 18:12 53.76737 -2.97114 813 ft 185 kts 100°
2026-04-22 18:13 53.76696 -2.94876 900 ft 198 kts 83°
2026-04-22 18:13 53.77219 -2.92681 1009 ft 207 kts 58°
2026-04-22 18:13 53.78466 -2.91382 1184 ft 225 kts 17°
2026-04-22 18:13 53.80047 -2.91786 1312 ft 244 kts 339°
2026-04-22 18:14 53.81259 -2.93850 1373 ft 257 kts 296°
2026-04-22 18:14 53.81646 -2.96809 1456 ft 260 kts 277°
2026-04-22 18:14 53.81889 -2.99831 1442 ft 252 kts 277°
2026-04-22 18:14 53.82123 -3.02656 1499 ft 238 kts 277°
2026-04-22 18:15 53.82339 -3.05395 1497 ft 233 kts 278°
2026-04-22 18:15 53.82465 -3.08103 1488 ft 229 kts 261°
2026-04-22 18:15 53.81855 -3.10466 1497 ft 214 kts 224°
2026-04-22 18:15 53.80672 -3.11716 1481 ft 193 kts 184°
2026-04-22 18:16 53.79356 -3.11630 1209 ft 194 kts 162°
2026-04-22 18:16 53.78059 -3.11176 1137 ft 188 kts 158°
2026-04-22 18:16 53.77111 -3.09960 1003 ft 166 kts 105°
2026-04-22 18:16 53.77216 -3.08080 764 ft 155 kts 80°
2026-04-22 18:17 53.77342 -3.06409 390 ft 128 kts 97°
2026-04-22 18:17 53.77268 -3.05069 175 ft 108 kts 98°
2026-04-22 18:17 53.77208 -3.03887 39 ft 88 kts 96°
2026-04-22 18:17 53.77158 -3.02890 30 ft 109 kts 96°
2026-04-22 18:18 53.77053 -3.01159 357 ft 181 kts 100°
2026-04-22 18:18 53.76902 -2.98758 1159 ft 213 kts 95°
2026-04-22 18:18 53.76751 -2.96262 1330 ft 213 kts 96°
2026-04-22 18:18 53.76537 -2.93816 1476 ft 208 kts 100°
2026-04-22 18:19 53.76303 -2.91415 1581 ft 206 kts 99°
2026-04-22 18:19 53.76068 -2.89042 1669 ft 204 kts 100°
2026-04-22 18:19 53.75850 -2.86678 1744 ft 203 kts 97°
2026-04-22 18:19 53.75631 -2.84370 1792 ft 202 kts 108°
2026-04-22 18:20 53.74918 -2.82330 1835 ft 204 kts 128°
2026-04-22 18:20 53.73798 -2.80837 1934 ft 208 kts 147°
2026-04-22 18:20 53.72398 -2.80092 1974 ft 216 kts 166°
2026-04-22 18:20 53.70864 -2.80186 2008 ft 227 kts 185°
2026-04-22 18:21 53.69364 -2.81160 2018 ft 237 kts 204°
2026-04-22 18:21 53.68078 -2.82916 2011 ft 238 kts 222°
2026-04-22 18:21 53.67186 -2.85246 1999 ft 236 kts 242°
2026-04-22 18:21 53.66760 -2.87884 1996 ft 232 kts 259°
2026-04-22 18:22 53.66507 -2.90567 1997 ft 232 kts 259°
2026-04-22 18:22 53.66493 -2.93254 1991 ft 234 kts 277°
2026-04-22 18:22 53.66743 -2.95972 1989 ft 235 kts 278°
2026-04-22 18:22 53.67018 -2.98671 1992 ft 233 kts 280°
2026-04-22 18:23 53.67296 -3.01379 1991 ft 232 kts 279°
2026-04-22 18:23 53.67578 -3.04052 1992 ft 232 kts 280°
2026-04-22 18:23 53.67841 -3.06693 1992 ft 231 kts 279°
2026-04-22 18:24 53.69180 -3.11478 1866 ft 230 kts 326°
2026-04-22 18:24 53.70596 -3.12553 1882 ft 220 kts 355°
2026-04-22 18:24 53.73512 -3.13239 2143 ft 191 kts
2026-04-22 18:25 53.74773 -3.13481 2108 ft 179 kts
2026-04-22 18:25 53.75877 -3.13631 1914 ft 136 kts 13°
2026-04-22 18:25 53.76685 -3.13171 1474 ft 117 kts 45°
2026-04-22 18:26 53.77364 -3.11030 932 ft 100 kts 81°
2026-04-22 18:26 53.77482 -3.09869 672 ft 100 kts 90°
2026-04-22 18:26 53.77440 -3.08680 587 ft 106 kts 97°
2026-04-22 18:26 53.77393 -3.07519 356 ft 95 kts 98°
2026-04-22 18:27 53.77342 -3.06418 273 ft 93 kts 101°
2026-04-22 18:27 53.77280 -3.05313 172 ft 94 kts 98°
2026-04-22 18:27 53.77220 -3.04222 68 ft 91 kts 99°
2026-04-22 18:27 53.77175 -3.03299 33 ft 72 kts 93°
2026-04-22 18:28 53.77106 -3.01939 236 ft 148 kts 100°
2026-04-22 18:28 53.76999 -3.00329 435 ft 134 kts 101°
2026-04-22 18:28 53.76876 -2.98833 589 ft 124 kts 99°
2026-04-22 18:28 53.76730 -2.97459 743 ft 117 kts 103°
2026-04-22 18:29 53.76648 -2.96117 906 ft 115 kts 86°
2026-04-22 18:29 53.76920 -2.94860 1082 ft 112 kts 75°
2026-04-22 18:29 53.77171 -2.93563 1274 ft 124 kts 74°
2026-04-22 18:29 53.77502 -2.92117 1484 ft 138 kts 76°
2026-04-22 18:30 53.77836 -2.90606 1696 ft 136 kts 73°
2026-04-22 18:30 53.78501 -2.87617 1968 ft 141 kts 75°
2026-04-22 18:30 53.78854 -2.86019 2006 ft 149 kts 74°
2026-04-22 18:31 53.79225 -2.84343 2010 ft 152 kts 75°
2026-04-22 18:31 53.79577 -2.82692 2012 ft 151 kts 75°
2026-04-22 18:31 53.79930 -2.81028 2024 ft 149 kts 75°
2026-04-22 18:31 53.80267 -2.79387 2029 ft 147 kts 75°
2026-04-22 18:32 53.80617 -2.77770 2027 ft 146 kts 75°
2026-04-22 18:32 53.80976 -2.76169 2025 ft 145 kts 74°
2026-04-22 18:32 53.81329 -2.74581 2027 ft 144 kts 75°
2026-04-22 18:32 53.81681 -2.72988 2028 ft 145 kts 75°
2026-04-22 18:33 53.82025 -2.71390 2033 ft 144 kts 75°
2026-04-22 18:33 53.82089 -2.69743 2034 ft 142 kts 103°
2026-04-22 18:33 53.81624 -2.68274 2037 ft 145 kts 129°
2026-04-22 18:33 53.80755 -2.67353 2031 ft 154 kts 154°
2026-04-22 18:34 53.79674 -2.67212 2036 ft 165 kts 179°
2026-04-22 18:34 53.78552 -2.67818 2034 ft 175 kts 198°
2026-04-22 18:34 53.77577 -2.69134 2032 ft 184 kts 219°
2026-04-22 18:34 53.76709 -2.70703 2031 ft 183 kts 219°
2026-04-22 18:35 53.75945 -2.72429 2017 ft 187 kts 239°
2026-04-22 18:35 53.75650 -2.74570 2014 ft 188 kts 267°
2026-04-22 18:35 53.75857 -2.76707 2010 ft 181 kts 288°
2026-04-22 18:35 53.76005 -2.78754 2005 ft 172 kts 269°
2026-04-22 18:36 53.76146 -2.80716 2012 ft 164 kts 274°
2026-04-22 18:36 53.76196 -2.82522 2003 ft 143 kts 273°
2026-04-22 18:36 53.76290 -2.84114 1986 ft 134 kts 268°
2026-04-22 18:36 53.76355 -2.85694 1906 ft 142 kts 273°
2026-04-22 18:37 53.76425 -2.87409 1733 ft 149 kts 269°
2026-04-22 18:37 53.76426 -2.89167 1587 ft 150 kts 265°
2026-04-22 18:37 53.76388 -2.90366 1444 ft 153 kts 262°
2026-04-22 18:37 53.76551 -2.92718 1240 ft 152 kts 294°
2026-04-22 18:38 53.76792 -2.94427 1135 ft 150 kts 269°
2026-04-22 18:38 53.76859 -2.96246 821 ft 158 kts 276°
2026-04-22 18:38 53.76948 -2.98035 537 ft 146 kts 271°
2026-04-22 18:39 53.77075 -3.01087 144 ft 118 kts 273°
2026-04-22 18:39 53.77155 -3.02447 96 ft 120 kts 273°
2026-04-22 18:39 53.77244 -3.04097 488 ft 158 kts 271°
2026-04-22 18:39 53.77333 -3.05954 1157 ft 175 kts 274°
2026-04-22 18:40 53.77437 -3.08132 1403 ft 194 kts 275°
2026-04-22 18:40 53.77561 -3.10496 1524 ft 209 kts 274°
2026-04-22 18:40 53.77684 -3.13046 1738 ft 218 kts 274°
2026-04-22 18:40 53.77824 -3.15551 1999 ft 223 kts 274°
2026-04-22 18:41 53.77988 -3.18303 1865 ft 244 kts 275°
2026-04-22 18:41 53.78161 -3.21173 1742 ft 246 kts 274°
2026-04-22 18:41 53.78331 -3.24035 1795 ft 239 kts 275°
2026-04-22 18:41 53.78507 -3.26794 1948 ft 237 kts 274°
2026-04-22 18:42 53.78691 -3.29598 1993 ft 244 kts 275°
2026-04-22 18:42 53.78929 -3.32436 2012 ft 250 kts 284°
2026-04-22 18:42 53.79621 -3.35119 2009 ft 247 kts 304°
2026-04-22 18:42 53.80592 -3.37451 2009 ft 240 kts 308°
2026-04-22 18:43 53.81570 -3.39702 2013 ft 235 kts 310°
2026-04-22 18:43 53.82547 -3.41911 2011 ft 233 kts 309°
2026-04-22 18:43 53.83514 -3.44094 2009 ft 231 kts 310°
2026-04-22 18:43 53.84470 -3.46278 2007 ft 230 kts 309°
2026-04-22 18:44 53.85425 -3.48455 2006 ft 230 kts 309°
2026-04-22 18:44 53.86372 -3.50640 2003 ft 230 kts 307°
2026-04-22 18:44 53.87042 -3.53093 2000 ft 230 kts 283°
2026-04-22 18:44 53.86991 -3.55708 1998 ft 221 kts 241°
2026-04-22 18:45 53.85984 -3.57446 1990 ft 201 kts 195°
2026-04-22 18:45 53.84704 -3.57436 1993 ft 180 kts 148°
2026-04-22 18:45 53.83784 -3.56119 2001 ft 175 kts 131°
2026-04-22 18:45 53.82924 -3.54652 2018 ft 175 kts 130°
2026-04-22 18:46 53.82088 -3.53138 2023 ft 176 kts 130°
2026-04-22 18:46 53.81254 -3.51625 2024 ft 176 kts 129°
2026-04-22 18:46 53.80419 -3.50107 2024 ft 176 kts 130°
2026-04-22 18:46 53.79591 -3.48586 2025 ft 176 kts 129°
2026-04-22 18:47 53.78760 -3.47074 2021 ft 175 kts 129°
2026-04-22 18:47 53.77934 -3.45555 2022 ft 175 kts 130°
2026-04-22 18:47 53.77119 -3.44065 2022 ft 175 kts 129°
2026-04-22 18:47 53.76308 -3.42539 2042 ft 173 kts 125°
2026-04-22 18:48 53.75796 -3.40719 1992 ft 174 kts 104°
2026-04-22 18:48 53.75596 -3.38670 1882 ft 178 kts 100°
2026-04-22 18:48 53.75409 -3.36640 2022 ft 170 kts 101°
2026-04-22 18:48 53.75309 -3.34644 2002 ft 174 kts 91°
2026-04-22 18:49 53.75509 -3.32574 1853 ft 184 kts 77°
2026-04-22 18:49 53.75919 -3.30509 1735 ft 188 kts 75°
2026-04-22 18:49 53.76325 -3.28384 1654 ft 188 kts 76°
2026-04-22 18:49 53.76706 -3.26264 1624 ft 187 kts 77°
2026-04-22 18:50 53.77061 -3.24268 1775 ft 164 kts 78°
2026-04-22 18:50 53.77391 -3.22497 1544 ft 151 kts 77°
2026-04-22 18:50 53.77688 -3.21105 1399 ft 113 kts 76°
2026-04-22 18:50 53.77933 -3.19925 1194 ft 100 kts 78°
2026-04-22 18:51 53.78127 -3.18834 1106 ft 93 kts 80°
2026-04-22 18:51 53.78250 -3.17789 1081 ft 91 kts 89°
2026-04-22 18:51 53.78141 -3.16697 885 ft 100 kts 102°
2026-04-22 18:51 53.77991 -3.15589 844 ft 93 kts 102°
2026-04-22 18:52 53.77862 -3.14518 773 ft 94 kts 101°
2026-04-22 18:52 53.77743 -3.13453 752 ft 90 kts 100°
2026-04-22 18:52 53.77635 -3.12403 666 ft 91 kts 101°
2026-04-22 18:52 53.77586 -3.11279 564 ft 101 kts 95°
2026-04-22 18:53 53.77553 -3.10086 658 ft 107 kts 97°
2026-04-22 18:53 53.77477 -3.08807 503 ft 99 kts 98°
2026-04-22 18:53 53.77403 -3.07734 404 ft 85 kts 97°
2026-04-22 18:53 53.77371 -3.07040 344 ft 102 kts 100°
2026-04-22 18:54 53.77282 -3.05426 229 ft 102 kts 97°
2026-04-22 18:54 53.77225 -3.04220 44 ft 100 kts 96°
2026-04-22 18:54 53.77157 -3.03054 195 ft 120 kts 99°
2026-04-22 18:54 53.77050 -3.01350 991 ft 169 kts 95°
2026-04-22 18:55 53.76971 -2.99071 1842 ft 216 kts 88°
2026-04-22 18:55 53.77639 -2.96690 2343 ft 234 kts 52°
2026-04-22 18:55 53.79062 -2.95736 2694 ft 220 kts
2026-04-22 18:55 53.80447 -2.96710 2876 ft 221 kts 320°
2026-04-22 18:56 53.81418 -2.98686 3046 ft 213 kts 309°
2026-04-22 18:56 53.82259 -3.00669 3304 ft 202 kts 295°
2026-04-22 18:56 53.82451 -3.02973 2835 ft 203 kts 257°
2026-04-22 18:56 53.82248 -3.05519 2029 ft 228 kts 258°
2026-04-22 18:57 53.81557 -3.07684 1963 ft 198 kts 213°
2026-04-22 18:57 53.80382 -3.08549 1738 ft 183 kts 179°
2026-04-22 18:57 53.79104 -3.08475 1374 ft 189 kts 167°
2026-04-22 18:57 53.77892 -3.08290 1229 ft 161 kts 163°
2026-04-22 18:58 53.77212 -3.07532 1129 ft 98 kts 88°
2026-04-22 18:58 53.77291 -3.06354 605 ft 104 kts 88°
2026-04-22 18:58 53.77274 -3.05178 216 ft 97 kts 99°
2026-04-22 18:58 53.77211 -3.04038 46 ft 88 kts 98°
2026-04-22 18:59 53.77173 -3.03172 32 ft 57 kts 94°
2026-04-22 18:59 53.77145 -3.02655 29 ft 38 kts 96°
2026-04-22 18:59 53.77130 -3.02248 30 ft 26 kts 90°
2026-04-22 18:59 53.77129 -3.02070 32 ft 2 kts 133°
2026-04-22 19:00 53.77119 -3.02165 31 ft 18 kts 275°
2026-04-22 19:00 53.77133 -3.02415 29 ft 25 kts 275°
2026-04-22 19:00 53.77145 -3.02634 29 ft 3 kts 275°
2026-04-22 19:00 53.77149 -3.02703 28 ft 10 kts 275°
2026-04-22 19:01 53.77158 -3.02903 30 ft 20 kts 274°
2026-04-22 19:01 53.77172 -3.03178 32 ft 28 kts 274°
2026-04-22 19:01 53.77186 -3.03525 35 ft 31 kts 274°
2026-04-22 19:01 53.77228 -3.03627 34 ft 8 kts 11°
2026-04-22 19:02 53.77423 -3.03573 32 ft 52 kts
2026-04-22 19:02 53.77729 -3.03616 32 ft 44 kts 345°
2026-04-22 19:02 53.77801 -3.03869 33 ft 24 kts 254°
2026-04-22 19:02 53.77729 -3.04122 33 ft 23 kts 279°
2026-04-22 19:03 53.77751 -3.04217 33 ft 0 kts 261°